Mud Butte, SD (57758)

4:41 PM MST on February 11, 2016 (GMT -0700)
Black Hills-Ice | | Change Station
CLOSE
Current Station
Airport
Location: Spearfish,
Elevation: 3898 ft
Nearby Weather Stations
Active Advisory: Wind Advisory

Elev 3898 ft 44.48 °N, 103.78 °W | Updated 26 minutes ago

Overcast
Overcast
46 °F
Feels Like 40 °F
N
17
Wind Variable Wind from NNW
Gusts 28 mph

Today
High -- | Low -- °F
--% Chance of Precip.
Yesterday
High -- | Low -- °F
Precip. -- in
Pressure 30.13 in
Visibility 10.0 miles
Clouds Overcast 6500 ft
Windchill 40 °F
Dew Point 28 °F
Humidity 50%
Rainfall 0.00 in
Snow Depth Not available.
6:58 AM 5:12 PM
Waxing Crescent, 15% visible
METAR KSPF 112315Z AUTO 33015G24KT 10SM OVC065 08/M02 A3013 RMK AO2
Pressure 30.13 in
Visibility 10.0 miles
Clouds Overcast 6500 ft
Windchill 40 °F
Dew Point 28 °F
Humidity 50%
Rainfall 0.00 in
Snow Depth Not available.
6:58 AM 5:12 PM
Waxing Crescent, 15% visible
METAR KSPF 112315Z AUTO 33015G24KT 10SM OVC065 08/M02 A3013 RMK AO2

10-Day Weather Forecast

Almanac

Astronomy

Feb. 11, 2016 Rise Set
Actual Time
Civil Twilight
Nautical Twilight
Astronomical Twilight
Moon
Length of Visible Light
Length of Day
Tomorrow will be .
, % of the Moon is Illuminated

Today's Extremes

State Highs State Lows

Community

WunderPhotos

Upload Photos

1,892,180 photos uploaded!

WunderBlog® & News

Nearby

Air Quality

  Air Quality AQ Index Pollutant
Not available.

Snow Depth

Station Depth Elevation

Earthquake Activity

City Distance Mag. Time & Date
Minimum magnitude displayed is 2.5.

Coastal Water Temperatures

Place Temperature

Stations

Nearby Weather Stations

Station Location Temp. Windchill Dew Point Humidity Wind Precip. Elev Updated Type
                   

Watches & Warnings

Wind Advisory
Issued: 11:10 AM MST Feb. 11, 2016 – National Weather Service

... Wind Advisory in effect until 5 PM MST this afternoon...

The National Weather Service in Rapid City has issued a Wind
Advisory... which is in effect until 5 PM MST this afternoon.

* Timing... gusty northwest winds will continue through this
afternoon.

* Winds... northwest 25 to 40 mph with gusts up to 55 mph.

* Impacts... sudden wind gusts can cause drivers to lose
control... especially in lightweight or high profile vehicles.
Strong winds can cause blowing dust... reduced visibility... and
flying debris.

Precautionary/preparedness actions...

A Wind Advisory means 30 mph winds... or gusts over 45 mph... are
expected or occurring.